sensor_id;sensor_type;location;lat;lon;timestamp;pressure;altitude;pressure_sealevel;temperature;humidity
41531;BME280;58990;46.284;13.126;2022-09-09T00:02:15;99036.56;;;20.04;77.41
41531;BME280;58990;46.284;13.126;2022-09-09T00:04:42;99051.16;;;19.96;78.23
41531;BME280;58990;46.284;13.126;2022-09-09T00:07:15;99052.50;;;19.99;77.40
41531;BME280;58990;46.284;13.126;2022-09-09T00:09:51;99044.56;;;20.04;77.36
41531;BME280;58990;46.284;13.126;2022-09-09T00:12:23;99051.22;;;20.02;77.41
41531;BME280;58990;46.284;13.126;2022-09-09T00:14:58;99051.03;;;20.08;76.72
41531;BME280;58990;46.284;13.126;2022-09-09T00:17:36;99052.88;;;20.08;77.04
41531;BME280;58990;46.284;13.126;2022-09-09T00:20:12;99056.84;;;20.05;76.51
41531;BME280;58990;46.284;13.126;2022-09-09T00:22:38;99056.22;;;19.98;77.11
41531;BME280;58990;46.284;13.126;2022-09-09T00:25:22;99059.44;;;20.00;76.83
41531;BME280;58990;46.284;13.126;2022-09-09T00:27:49;99067.00;;;20.08;75.94
41531;BME280;58990;46.284;13.126;2022-09-09T00:30:26;99072.19;;;19.98;76.97
41531;BME280;58990;46.284;13.126;2022-09-09T00:32:53;99078.56;;;19.97;76.42
41531;BME280;58990;46.284;13.126;2022-09-09T00:35:24;99075.91;;;19.97;76.37
41531;BME280;58990;46.284;13.126;2022-09-09T00:37:53;99073.84;;;20.04;76.33
41531;BME280;58990;46.284;13.126;2022-09-09T00:48:32;99054.75;;;20.07;74.67
41531;BME280;58990;46.284;13.126;2022-09-09T00:51:02;99056.34;;;20.08;74.17
41531;BME280;58990;46.284;13.126;2022-09-09T00:53:39;99052.63;;;20.09;74.02
41531;BME280;58990;46.284;13.126;2022-09-09T00:58:51;99058.19;;;20.08;73.55
41531;BME280;58990;46.284;13.126;2022-09-09T01:01:21;99061.97;;;20.12;73.16
41531;BME280;58990;46.284;13.126;2022-09-09T01:03:48;99060.16;;;20.17;72.35
41531;BME280;58990;46.284;13.126;2022-09-09T01:09:22;99060.66;;;20.14;73.07
41531;BME280;58990;46.284;13.126;2022-09-09T01:17:17;99068.34;;;20.11;74.04
41531;BME280;58990;46.284;13.126;2022-09-09T01:19:50;99065.94;;;20.09;73.87
41531;BME280;58990;46.284;13.126;2022-09-09T01:28:04;99060.50;;;20.21;71.34
41531;BME280;58990;46.284;13.126;2022-09-09T01:30:32;99052.19;;;20.17;71.27
41531;BME280;58990;46.284;13.126;2022-09-09T01:33:15;99056.47;;;20.19;71.87
41531;BME280;58990;46.284;13.126;2022-09-09T01:38:21;99046.31;;;20.15;71.45
41531;BME280;58990;46.284;13.126;2022-09-09T01:40:47;99041.03;;;20.21;70.26
41531;BME280;58990;46.284;13.126;2022-09-09T01:43:13;99043.13;;;20.19;70.31
41531;BME280;58990;46.284;13.126;2022-09-09T01:45:39;99035.75;;;20.26;69.65
41531;BME280;58990;46.284;13.126;2022-09-09T01:48:04;99043.19;;;20.24;69.39
41531;BME280;58990;46.284;13.126;2022-09-09T01:50:29;99041.06;;;20.26;69.28
41531;BME280;58990;46.284;13.126;2022-09-09T01:52:56;99032.03;;;20.27;69.05
41531;BME280;58990;46.284;13.126;2022-09-09T01:55:28;99028.88;;;20.30;69.64
41531;BME280;58990;46.284;13.126;2022-09-09T02:00:43;99040.16;;;20.37;68.93
41531;BME280;58990;46.284;13.126;2022-09-09T02:03:17;99039.09;;;20.38;68.25
41531;BME280;58990;46.284;13.126;2022-09-09T02:06:00;99041.69;;;20.33;69.73
41531;BME280;58990;46.284;13.126;2022-09-09T02:08:36;99040.59;;;20.29;69.32
41531;BME280;58990;46.284;13.126;2022-09-09T02:11:18;99034.59;;;20.16;69.27
41531;BME280;58990;46.284;13.126;2022-09-09T02:13:44;99036.25;;;20.23;69.00
41531;BME280;58990;46.284;13.126;2022-09-09T02:21:30;99043.56;;;20.10;69.44
41531;BME280;58990;46.284;13.126;2022-09-09T02:23:56;99042.28;;;20.13;68.92
41531;BME280;58990;46.284;13.126;2022-09-09T02:26:24;99047.84;;;20.11;68.89
41531;BME280;58990;46.284;13.126;2022-09-09T02:28:51;99043.66;;;20.15;69.10
41531;BME280;58990;46.284;13.126;2022-09-09T02:31:18;99039.53;;;20.08;69.20
41531;BME280;58990;46.284;13.126;2022-09-09T02:33:47;99041.91;;;20.04;69.38
41531;BME280;58990;46.284;13.126;2022-09-09T02:36:15;99045.38;;;20.05;69.68
41531;BME280;58990;46.284;13.126;2022-09-09T02:38:42;99046.69;;;20.02;69.93
41531;BME280;58990;46.284;13.126;2022-09-09T02:41:10;99048.28;;;20.03;69.25
41531;BME280;58990;46.284;13.126;2022-09-09T02:43:36;99053.81;;;19.96;70.33
41531;BME280;58990;46.284;13.126;2022-09-09T02:46:08;99057.19;;;19.92;70.55
41531;BME280;58990;46.284;13.126;2022-09-09T02:53:59;99077.94;;;19.73;72.56
41531;BME280;58990;46.284;13.126;2022-09-09T02:56:27;99095.09;;;19.60;74.39
41531;BME280;58990;46.284;13.126;2022-09-09T02:58:55;99118.25;;;19.42;77.46
41531;BME280;58990;46.284;13.126;2022-09-09T03:01:20;99151.44;;;19.23;79.94
41531;BME280;58990;46.284;13.126;2022-09-09T03:03:45;99132.88;;;18.94;82.20
41531;BME280;58990;46.284;13.126;2022-09-09T03:06:11;99109.00;;;18.70;83.46
41531;BME280;58990;46.284;13.126;2022-09-09T03:08:37;99073.28;;;18.49;81.88
41531;BME280;58990;46.284;13.126;2022-09-09T03:11:02;99052.16;;;18.42;81.27
41531;BME280;58990;46.284;13.126;2022-09-09T03:13:28;99042.88;;;18.45;82.10
41531;BME280;58990;46.284;13.126;2022-09-09T03:15:53;99041.69;;;18.53;82.07
41531;BME280;58990;46.284;13.126;2022-09-09T03:18:18;99043.31;;;18.54;82.17
41531;BME280;58990;46.284;13.126;2022-09-09T03:20:43;99051.28;;;18.54;80.40
41531;BME280;58990;46.284;13.126;2022-09-09T03:23:11;99040.84;;;18.64;78.97
41531;BME280;58990;46.284;13.126;2022-09-09T03:25:38;99045.22;;;18.41;79.10
41531;BME280;58990;46.284;13.126;2022-09-09T03:28:04;99048.25;;;18.33;78.17
41531;BME280;58990;46.284;13.126;2022-09-09T03:30:30;99054.03;;;18.30;79.78
41531;BME280;58990;46.284;13.126;2022-09-09T03:32:55;99051.97;;;18.32;79.26
41531;BME280;58990;46.284;13.126;2022-09-09T03:35:21;99053.47;;;18.28;82.00
41531;BME280;58990;46.284;13.126;2022-09-09T03:37:47;99055.16;;;18.34;82.03
41531;BME280;58990;46.284;13.126;2022-09-09T03:40:12;99063.66;;;18.19;83.92
41531;BME280;58990;46.284;13.126;2022-09-09T03:42:38;99060.78;;;18.21;82.04
41531;BME280;58990;46.284;13.126;2022-09-09T03:45:04;99059.41;;;18.18;82.75
41531;BME280;58990;46.284;13.126;2022-09-09T03:47:30;99068.66;;;18.15;82.31
41531;BME280;58990;46.284;13.126;2022-09-09T03:49:55;99069.09;;;18.12;83.00
41531;BME280;58990;46.284;13.126;2022-09-09T03:52:20;99081.56;;;18.12;83.43
41531;BME280;58990;46.284;13.126;2022-09-09T03:54:46;99081.34;;;18.13;83.04
41531;BME280;58990;46.284;13.126;2022-09-09T03:57:12;99076.84;;;18.14;82.76
41531;BME280;58990;46.284;13.126;2022-09-09T03:59:41;99071.84;;;18.18;82.14
41531;BME280;58990;46.284;13.126;2022-09-09T04:02:06;99055.00;;;18.12;82.92
41531;BME280;58990;46.284;13.126;2022-09-09T04:04:32;99055.91;;;18.18;81.31
41531;BME280;58990;46.284;13.126;2022-09-09T04:06:57;99053.16;;;18.12;81.26
41531;BME280;58990;46.284;13.126;2022-09-09T04:09:22;99055.81;;;18.12;80.68
41531;BME280;58990;46.284;13.126;2022-09-09T04:11:48;99060.31;;;18.24;79.45
41531;BME280;58990;46.284;13.126;2022-09-09T04:14:14;99059.81;;;18.27;79.18
41531;BME280;58990;46.284;13.126;2022-09-09T04:16:39;99054.50;;;18.27;79.53
41531;BME280;58990;46.284;13.126;2022-09-09T04:19:08;99050.81;;;18.28;80.50
41531;BME280;58990;46.284;13.126;2022-09-09T04:21:34;99054.63;;;18.32;78.87
41531;BME280;58990;46.284;13.126;2022-09-09T04:23:59;99048.91;;;18.40;78.96
41531;BME280;58990;46.284;13.126;2022-09-09T04:26:24;99042.66;;;18.46;76.87
41531;BME280;58990;46.284;13.126;2022-09-09T04:28:50;99051.34;;;18.42;79.15
41531;BME280;58990;46.284;13.126;2022-09-09T04:31:16;99058.63;;;18.46;78.52
41531;BME280;58990;46.284;13.126;2022-09-09T04:33:43;99061.16;;;18.41;78.45
41531;BME280;58990;46.284;13.126;2022-09-09T04:36:08;99057.94;;;18.39;78.28
41531;BME280;58990;46.284;13.126;2022-09-09T04:38:33;99054.50;;;18.27;78.85
41531;BME280;58990;46.284;13.126;2022-09-09T04:40:58;99052.56;;;18.22;79.96
41531;BME280;58990;46.284;13.126;2022-09-09T04:43:24;99053.72;;;18.26;78.91
41531;BME280;58990;46.284;13.126;2022-09-09T04:45:51;99055.78;;;18.24;79.56
41531;BME280;58990;46.284;13.126;2022-09-09T04:48:16;99053.84;;;18.20;80.10
41531;BME280;58990;46.284;13.126;2022-09-09T04:50:42;99055.13;;;18.17;80.77
41531;BME280;58990;46.284;13.126;2022-09-09T04:53:07;99044.63;;;18.10;81.36
41531;BME280;58990;46.284;13.126;2022-09-09T04:55:33;99029.53;;;17.99;81.07
41531;BME280;58990;46.284;13.126;2022-09-09T04:58:05;99019.84;;;18.05;79.99
41531;BME280;58990;46.284;13.126;2022-09-09T05:00:31;99035.53;;;18.06;79.67
41531;BME280;58990;46.284;13.126;2022-09-09T05:02:56;99035.75;;;18.05;79.85
41531;BME280;58990;46.284;13.126;2022-09-09T05:05:22;99047.53;;;18.09;79.51
41531;BME280;58990;46.284;13.126;2022-09-09T05:07:48;99043.50;;;18.06;79.91
41531;BME280;58990;46.284;13.126;2022-09-09T05:10:14;99041.31;;;18.03;79.61
41531;BME280;58990;46.284;13.126;2022-09-09T05:12:41;99042.34;;;18.02;79.93
41531;BME280;58990;46.284;13.126;2022-09-09T05:15:06;99033.34;;;18.03;80.63
41531;BME280;58990;46.284;13.126;2022-09-09T05:17:32;99024.78;;;18.01;79.90
41531;BME280;58990;46.284;13.126;2022-09-09T05:19:58;99033.34;;;18.03;78.92
41531;BME280;58990;46.284;13.126;2022-09-09T05:22:24;99025.13;;;18.05;79.38
41531;BME280;58990;46.284;13.126;2022-09-09T05:24:49;99039.31;;;18.10;77.87
41531;BME280;58990;46.284;13.126;2022-09-09T05:27:18;99040.59;;;18.08;78.66
41531;BME280;58990;46.284;13.126;2022-09-09T05:29:44;99035.88;;;18.10;77.11
41531;BME280;58990;46.284;13.126;2022-09-09T05:32:09;99036.91;;;18.09;75.98
41531;BME280;58990;46.284;13.126;2022-09-09T05:34:35;99037.69;;;18.09;75.81
41531;BME280;58990;46.284;13.126;2022-09-09T05:37:00;99042.09;;;18.15;74.83
41531;BME280;58990;46.284;13.126;2022-09-09T05:39:25;99041.13;;;18.22;74.36
41531;BME280;58990;46.284;13.126;2022-09-09T05:41:51;99042.38;;;18.31;72.98
41531;BME280;58990;46.284;13.126;2022-09-09T05:44:16;99047.00;;;18.36;72.56
41531;BME280;58990;46.284;13.126;2022-09-09T05:46:41;99043.84;;;18.39;71.90
41531;BME280;58990;46.284;13.126;2022-09-09T05:49:06;99048.44;;;18.43;71.69
41531;BME280;58990;46.284;13.126;2022-09-09T05:51:33;99047.00;;;18.53;71.27
41531;BME280;58990;46.284;13.126;2022-09-09T05:53:58;99041.22;;;18.56;70.78
41531;BME280;58990;46.284;13.126;2022-09-09T05:56:24;99041.91;;;18.63;71.07
41531;BME280;58990;46.284;13.126;2022-09-09T05:58:50;99051.50;;;18.64;71.45
41531;BME280;58990;46.284;13.126;2022-09-09T06:01:17;99053.50;;;18.74;71.66
41531;BME280;58990;46.284;13.126;2022-09-09T06:03:43;99055.59;;;18.72;71.74
41531;BME280;58990;46.284;13.126;2022-09-09T06:06:10;99047.06;;;18.70;72.03
41531;BME280;58990;46.284;13.126;2022-09-09T06:08:37;99046.44;;;18.79;70.92
41531;BME280;58990;46.284;13.126;2022-09-09T06:11:04;99044.66;;;18.85;69.82
41531;BME280;58990;46.284;13.126;2022-09-09T06:13:30;99053.84;;;18.77;70.70
41531;BME280;58990;46.284;13.126;2022-09-09T06:15:55;99058.19;;;18.83;71.01
41531;BME280;58990;46.284;13.126;2022-09-09T06:18:21;99058.09;;;18.78;71.70
41531;BME280;58990;46.284;13.126;2022-09-09T06:23:34;99046.03;;;18.88;71.32
41531;BME280;58990;46.284;13.126;2022-09-09T06:28:41;99041.09;;;18.91;70.80
41531;BME280;58990;46.284;13.126;2022-09-09T06:31:09;99048.56;;;18.94;68.90
41531;BME280;58990;46.284;13.126;2022-09-09T06:33:35;99035.59;;;18.98;68.24
41531;BME280;58990;46.284;13.126;2022-09-09T06:36:02;99035.84;;;18.96;68.98
41531;BME280;58990;46.284;13.126;2022-09-09T06:38:28;99038.25;;;18.98;68.06
41531;BME280;58990;46.284;13.126;2022-09-09T06:40:54;99035.69;;;19.03;68.29
41531;BME280;58990;46.284;13.126;2022-09-09T06:43:21;99033.91;;;19.09;68.19
41531;BME280;58990;46.284;13.126;2022-09-09T06:45:59;99032.72;;;19.16;67.51
41531;BME280;58990;46.284;13.126;2022-09-09T06:48:25;99041.88;;;19.26;67.34
41531;BME280;58990;46.284;13.126;2022-09-09T06:50:59;99037.50;;;19.37;66.41
41531;BME280;58990;46.284;13.126;2022-09-09T06:53:24;99037.75;;;19.35;68.55
41531;BME280;58990;46.284;13.126;2022-09-09T06:55:51;99040.75;;;19.39;68.91
41531;BME280;58990;46.284;13.126;2022-09-09T06:58:16;99029.34;;;19.43;68.58
41531;BME280;58990;46.284;13.126;2022-09-09T07:00:41;99037.13;;;19.45;68.91
41531;BME280;58990;46.284;13.126;2022-09-09T07:03:07;99027.19;;;19.40;68.12
41531;BME280;58990;46.284;13.126;2022-09-09T07:05:32;99028.72;;;19.53;67.89
41531;BME280;58990;46.284;13.126;2022-09-09T07:07:58;99015.78;;;19.62;66.94
41531;BME280;58990;46.284;13.126;2022-09-09T07:10:23;99023.25;;;19.65;67.01
41531;BME280;58990;46.284;13.126;2022-09-09T07:12:52;99020.06;;;19.63;68.07
41531;BME280;58990;46.284;13.126;2022-09-09T07:15:18;99021.94;;;19.62;66.17
41531;BME280;58990;46.284;13.126;2022-09-09T07:17:47;99025.94;;;19.65;67.41
41531;BME280;58990;46.284;13.126;2022-09-09T07:20:13;99029.66;;;19.64;67.23
41531;BME280;58990;46.284;13.126;2022-09-09T07:22:39;99031.50;;;19.63;66.13
41531;BME280;58990;46.284;13.126;2022-09-09T07:25:05;99037.50;;;19.76;67.37
41531;BME280;58990;46.284;13.126;2022-09-09T07:27:30;99027.34;;;19.90;66.12
41531;BME280;58990;46.284;13.126;2022-09-09T07:29:56;99019.72;;;20.21;64.65
41531;BME280;58990;46.284;13.126;2022-09-09T07:32:22;99022.66;;;21.06;62.73
41531;BME280;58990;46.284;13.126;2022-09-09T07:34:47;99024.44;;;22.55;60.06
41531;BME280;58990;46.284;13.126;2022-09-09T07:37:15;99023.88;;;23.61;56.24
41531;BME280;58990;46.284;13.126;2022-09-09T07:39:41;99021.44;;;24.35;52.60
41531;BME280;58990;46.284;13.126;2022-09-09T07:42:06;99016.56;;;24.42;53.98
41531;BME280;58990;46.284;13.126;2022-09-09T07:44:31;99015.72;;;23.97;54.63
41531;BME280;58990;46.284;13.126;2022-09-09T07:47:00;99027.13;;;23.52;55.99
41531;BME280;58990;46.284;13.126;2022-09-09T07:49:25;99036.28;;;23.31;56.51
41531;BME280;58990;46.284;13.126;2022-09-09T07:51:50;99029.28;;;22.89;57.29
41531;BME280;58990;46.284;13.126;2022-09-09T07:54:16;99031.41;;;22.56;58.15
41531;BME280;58990;46.284;13.126;2022-09-09T07:56:44;99030.88;;;22.64;58.33
41531;BME280;58990;46.284;13.126;2022-09-09T07:59:10;99023.69;;;23.06;57.56
41531;BME280;58990;46.284;13.126;2022-09-09T08:01:37;99025.53;;;23.10;57.20
41531;BME280;58990;46.284;13.126;2022-09-09T08:04:05;99031.16;;;23.04;56.81
41531;BME280;58990;46.284;13.126;2022-09-09T08:06:34;99024.47;;;22.85;57.73
41531;BME280;58990;46.284;13.126;2022-09-09T08:08:59;99032.53;;;22.96;57.95
41531;BME280;58990;46.284;13.126;2022-09-09T08:11:25;99017.78;;;22.98;57.37
41531;BME280;58990;46.284;13.126;2022-09-09T08:13:51;99028.69;;;23.54;56.61
41531;BME280;58990;46.284;13.126;2022-09-09T08:16:19;99027.06;;;23.73;54.27
41531;BME280;58990;46.284;13.126;2022-09-09T08:18:46;99042.63;;;23.66;55.41
41531;BME280;58990;46.284;13.126;2022-09-09T08:21:13;99053.91;;;23.52;55.70
41531;BME280;58990;46.284;13.126;2022-09-09T08:23:40;99048.59;;;23.22;56.90
41531;BME280;58990;46.284;13.126;2022-09-09T08:26:07;99058.19;;;22.97;56.94
41531;BME280;58990;46.284;13.126;2022-09-09T08:28:34;99052.28;;;22.64;57.64
41531;BME280;58990;46.284;13.126;2022-09-09T08:31:13;99050.91;;;22.41;58.04
41531;BME280;58990;46.284;13.126;2022-09-09T08:33:39;99043.41;;;22.43;59.02
41531;BME280;58990;46.284;13.126;2022-09-09T08:36:06;99045.28;;;22.37;58.08
41531;BME280;58990;46.284;13.126;2022-09-09T08:38:34;99050.56;;;22.27;57.75
41531;BME280;58990;46.284;13.126;2022-09-09T08:41:06;99052.09;;;22.07;57.97
41531;BME280;58990;46.284;13.126;2022-09-09T08:43:34;99048.91;;;22.10;58.50
41531;BME280;58990;46.284;13.126;2022-09-09T08:51:21;99029.69;;;22.24;58.59
41531;BME280;58990;46.284;13.126;2022-09-09T08:53:48;99024.44;;;22.44;57.61
41531;BME280;58990;46.284;13.126;2022-09-09T08:56:16;99022.63;;;23.07;57.67
41531;BME280;58990;46.284;13.126;2022-09-09T08:58:47;99026.50;;;23.76;53.90
41531;BME280;58990;46.284;13.126;2022-09-09T09:06:55;99034.53;;;23.71;53.46
41531;BME280;58990;46.284;13.126;2022-09-09T09:12:16;99033.69;;;23.86;52.60
41531;BME280;58990;46.284;13.126;2022-09-09T09:14:42;99035.06;;;23.78;54.18
41531;BME280;58990;46.284;13.126;2022-09-09T09:17:10;99034.47;;;24.02;53.41
41531;BME280;58990;46.284;13.126;2022-09-09T09:19:38;99037.81;;;24.33;53.48
41531;BME280;58990;46.284;13.126;2022-09-09T09:27:35;99044.03;;;24.18;52.35
41531;BME280;58990;46.284;13.126;2022-09-09T09:30:15;99053.91;;;24.33;52.98
41531;BME280;58990;46.284;13.126;2022-09-09T09:32:44;99051.22;;;24.33;52.65
41531;BME280;58990;46.284;13.126;2022-09-09T09:35:14;99049.91;;;24.26;53.49
41531;BME280;58990;46.284;13.126;2022-09-09T09:37:40;99048.31;;;24.19;52.85
41531;BME280;58990;46.284;13.126;2022-09-09T09:40:10;99051.06;;;24.09;52.70
41531;BME280;58990;46.284;13.126;2022-09-09T09:42:36;99049.00;;;23.80;53.63
41531;BME280;58990;46.284;13.126;2022-09-09T09:45:15;99047.13;;;23.76;53.23
41531;BME280;58990;46.284;13.126;2022-09-09T09:47:43;99056.53;;;23.58;55.40
41531;BME280;58990;46.284;13.126;2022-09-09T09:50:16;99055.22;;;23.60;54.65
41531;BME280;58990;46.284;13.126;2022-09-09T09:52:42;99068.41;;;23.31;54.80
41531;BME280;58990;46.284;13.126;2022-09-09T09:55:12;99069.19;;;23.26;55.39
41531;BME280;58990;46.284;13.126;2022-09-09T09:57:38;99078.81;;;22.96;56.50
41531;BME280;58990;46.284;13.126;2022-09-09T10:00:11;99081.75;;;22.95;56.26
41531;BME280;58990;46.284;13.126;2022-09-09T10:02:39;99079.06;;;23.10;56.48
41531;BME280;58990;46.284;13.126;2022-09-09T10:05:13;99075.88;;;23.24;55.86
41531;BME280;58990;46.284;13.126;2022-09-09T10:07:39;99070.25;;;23.46;56.31
41531;BME280;58990;46.284;13.126;2022-09-09T10:10:05;99057.84;;;23.81;56.54
41531;BME280;58990;46.284;13.126;2022-09-09T10:23:41;99038.41;;;24.70;51.69
41531;BME280;58990;46.284;13.126;2022-09-09T10:29:13;99037.66;;;24.94;49.74
41531;BME280;58990;46.284;13.126;2022-09-09T10:37:07;99046.00;;;25.27;48.71
41531;BME280;58990;46.284;13.126;2022-09-09T10:39:40;99053.88;;;25.96;47.51
41531;BME280;58990;46.284;13.126;2022-09-09T10:42:07;99042.53;;;25.21;48.54
41531;BME280;58990;46.284;13.126;2022-09-09T10:53:02;99067.22;;;24.89;48.73
41531;BME280;58990;46.284;13.126;2022-09-09T10:55:44;99059.31;;;25.08;49.02
41531;BME280;58990;46.284;13.126;2022-09-09T10:58:13;99054.59;;;24.94;48.25
41531;BME280;58990;46.284;13.126;2022-09-09T11:00:40;99063.22;;;24.86;49.20
41531;BME280;58990;46.284;13.126;2022-09-09T11:03:09;99061.94;;;25.13;46.88
41531;BME280;58990;46.284;13.126;2022-09-09T11:05:46;99058.38;;;25.23;47.41
41531;BME280;58990;46.284;13.126;2022-09-09T11:08:21;99068.16;;;25.67;46.37
41531;BME280;58990;46.284;13.126;2022-09-09T11:10:59;99071.38;;;25.69;45.21
41531;BME280;58990;46.284;13.126;2022-09-09T11:16:30;99080.41;;;24.90;47.98
41531;BME280;58990;46.284;13.126;2022-09-09T11:21:47;99068.44;;;25.41;46.55
41531;BME280;58990;46.284;13.126;2022-09-09T11:24:15;99062.03;;;25.61;46.46
41531;BME280;58990;46.284;13.126;2022-09-09T11:26:43;99054.75;;;25.08;46.49
41531;BME280;58990;46.284;13.126;2022-09-09T11:37:45;99049.94;;;26.12;45.67
41531;BME280;58990;46.284;13.126;2022-09-09T11:40:20;99051.38;;;26.24;45.12
41531;BME280;58990;46.284;13.126;2022-09-09T11:42:47;99050.16;;;25.92;45.75
41531;BME280;58990;46.284;13.126;2022-09-09T11:58:36;99028.88;;;25.71;45.84
41531;BME280;58990;46.284;13.126;2022-09-09T12:01:12;99017.78;;;25.53;45.97
41531;BME280;58990;46.284;13.126;2022-09-09T12:06:19;99024.56;;;25.51;46.69
41531;BME280;58990;46.284;13.126;2022-09-09T12:08:53;99019.19;;;26.18;45.00
41531;BME280;58990;46.284;13.126;2022-09-09T12:11:28;99017.81;;;26.59;44.07
41531;BME280;58990;46.284;13.126;2022-09-09T12:13:55;99006.34;;;26.86;44.33
41531;BME280;58990;46.284;13.126;2022-09-09T12:16:28;98998.91;;;27.11;43.19
41531;BME280;58990;46.284;13.126;2022-09-09T12:19:04;99000.91;;;27.06;43.93
41531;BME280;58990;46.284;13.126;2022-09-09T12:21:45;98998.88;;;26.83;43.38
41531;BME280;58990;46.284;13.126;2022-09-09T12:24:15;98995.31;;;26.69;43.51
41531;BME280;58990;46.284;13.126;2022-09-09T12:26:53;99007.44;;;26.85;43.54
41531;BME280;58990;46.284;13.126;2022-09-09T12:29:29;98999.06;;;26.87;43.83
41531;BME280;58990;46.284;13.126;2022-09-09T12:34:40;98979.16;;;26.36;44.17
41531;BME280;58990;46.284;13.126;2022-09-09T12:37:11;98992.09;;;25.91;45.26
41531;BME280;58990;46.284;13.126;2022-09-09T12:39:40;98978.69;;;25.66;45.37
41531;BME280;58990;46.284;13.126;2022-09-09T12:42:15;98978.66;;;25.47;45.23
41531;BME280;58990;46.284;13.126;2022-09-09T12:44:49;98985.44;;;25.40;46.06
41531;BME280;58990;46.284;13.126;2022-09-09T12:47:15;98979.88;;;25.36;46.83
41531;BME280;58990;46.284;13.126;2022-09-09T12:49:40;98974.88;;;25.48;46.79
41531;BME280;58990;46.284;13.126;2022-09-09T12:52:14;98967.88;;;25.72;45.82
41531;BME280;58990;46.284;13.126;2022-09-09T12:54:44;98970.94;;;26.08;45.23
41531;BME280;58990;46.284;13.126;2022-09-09T12:57:11;98963.56;;;26.33;44.53
41531;BME280;58990;46.284;13.126;2022-09-09T12:59:38;98963.41;;;26.43;44.64
41531;BME280;58990;46.284;13.126;2022-09-09T13:02:15;98966.19;;;26.38;43.56
41531;BME280;58990;46.284;13.126;2022-09-09T13:04:42;98978.06;;;25.75;44.85
41531;BME280;58990;46.284;13.126;2022-09-09T13:07:09;98966.88;;;25.43;46.24
41531;BME280;58990;46.284;13.126;2022-09-09T13:09:35;98965.50;;;25.46;45.22
41531;BME280;58990;46.284;13.126;2022-09-09T13:12:00;98971.72;;;25.41;45.95
41531;BME280;58990;46.284;13.126;2022-09-09T13:14:30;98969.63;;;25.33;45.96
41531;BME280;58990;46.284;13.126;2022-09-09T13:17:01;98979.63;;;25.27;45.77
41531;BME280;58990;46.284;13.126;2022-09-09T13:19:29;98970.97;;;25.06;46.54
41531;BME280;58990;46.284;13.126;2022-09-09T13:21:56;98965.72;;;24.66;47.13
41531;BME280;58990;46.284;13.126;2022-09-09T13:27:04;98949.22;;;24.44;48.17
41531;BME280;58990;46.284;13.126;2022-09-09T13:29:30;98938.09;;;24.61;46.27
41531;BME280;58990;46.284;13.126;2022-09-09T13:32:06;98942.50;;;24.46;47.22
41531;BME280;58990;46.284;13.126;2022-09-09T13:34:33;98936.06;;;24.47;47.71
41531;BME280;58990;46.284;13.126;2022-09-09T13:37:00;98939.97;;;24.65;46.64
41531;BME280;58990;46.284;13.126;2022-09-09T13:39:31;98928.78;;;24.53;48.05
41531;BME280;58990;46.284;13.126;2022-09-09T13:41:57;98928.50;;;25.13;45.90
41531;BME280;58990;46.284;13.126;2022-09-09T13:44:23;98932.97;;;25.23;47.01
41531;BME280;58990;46.284;13.126;2022-09-09T13:46:59;98937.91;;;25.40;45.51
41531;BME280;58990;46.284;13.126;2022-09-09T13:49:25;98937.09;;;25.40;45.38
41531;BME280;58990;46.284;13.126;2022-09-09T13:52:02;98936.47;;;25.48;45.24
41531;BME280;58990;46.284;13.126;2022-09-09T13:54:28;98932.03;;;25.33;45.18
41531;BME280;58990;46.284;13.126;2022-09-09T13:56:55;98941.19;;;25.08;46.19
41531;BME280;58990;46.284;13.126;2022-09-09T13:59:21;98930.47;;;24.78;47.13
41531;BME280;58990;46.284;13.126;2022-09-09T14:01:47;98932.56;;;24.81;47.03
41531;BME280;58990;46.284;13.126;2022-09-09T14:04:13;98930.34;;;24.89;46.47
41531;BME280;58990;46.284;13.126;2022-09-09T14:06:40;98930.44;;;24.83;46.17
41531;BME280;58990;46.284;13.126;2022-09-09T14:09:06;98930.19;;;24.80;46.90
41531;BME280;58990;46.284;13.126;2022-09-09T14:11:31;98935.78;;;24.83;46.36
41531;BME280;58990;46.284;13.126;2022-09-09T14:13:57;98934.84;;;24.69;46.69
41531;BME280;58990;46.284;13.126;2022-09-09T14:16:22;98938.44;;;24.54;46.71
41531;BME280;58990;46.284;13.126;2022-09-09T14:18:47;98935.84;;;24.39;46.43
41531;BME280;58990;46.284;13.126;2022-09-09T14:21:13;98930.31;;;24.25;46.99
41531;BME280;58990;46.284;13.126;2022-09-09T14:23:38;98924.97;;;24.25;47.20
41531;BME280;58990;46.284;13.126;2022-09-09T14:26:04;98934.38;;;24.17;48.29
41531;BME280;58990;46.284;13.126;2022-09-09T14:28:30;98931.69;;;24.22;48.22
41531;BME280;58990;46.284;13.126;2022-09-09T14:30:59;98941.09;;;24.14;48.83
41531;BME280;58990;46.284;13.126;2022-09-09T14:33:24;98942.22;;;24.13;49.04
41531;BME280;58990;46.284;13.126;2022-09-09T14:35:55;98943.34;;;24.02;48.18
41531;BME280;58990;46.284;13.126;2022-09-09T14:38:20;98953.00;;;23.98;49.08
41531;BME280;58990;46.284;13.126;2022-09-09T14:40:45;98956.22;;;24.00;49.43
41531;BME280;58990;46.284;13.126;2022-09-09T14:43:11;98957.28;;;24.04;48.78
41531;BME280;58990;46.284;13.126;2022-09-09T14:45:37;98955.41;;;23.99;49.66
41531;BME280;58990;46.284;13.126;2022-09-09T14:48:03;98952.69;;;24.05;49.79
41531;BME280;58990;46.284;13.126;2022-09-09T14:50:28;98956.41;;;24.14;49.26
41531;BME280;58990;46.284;13.126;2022-09-09T14:52:53;98958.53;;;24.12;49.56
41531;BME280;58990;46.284;13.126;2022-09-09T14:55:18;98956.72;;;24.07;49.66
41531;BME280;58990;46.284;13.126;2022-09-09T14:57:44;98960.47;;;24.01;50.48
41531;BME280;58990;46.284;13.126;2022-09-09T15:00:10;98966.94;;;24.00;49.30
41531;BME280;58990;46.284;13.126;2022-09-09T15:02:36;98962.63;;;24.04;49.88
41531;BME280;58990;46.284;13.126;2022-09-09T15:05:01;98957.31;;;23.94;50.52